Poseidon — SVIU — position and weather

sailwx.info

Track history (hours):
 
Tides and Currents Weather Stations Pressure Air Temp Water Temp Dewpoint Dewpoint Depression Visibility Wind Speed Wind Dir Waves Ship Positions

Poseidon

Last reported at 2017-Oct-17 22:15 UTC. Time now 2017-Oct-18 06:07 UTC.
Position N 49°04' W 126°39'.

Length 224 m; draft 13.1 m.

Type: Ship. MMSI: 239896000.

Date/timePositionNaut miles runAvg speedWind from/ knotsBaromVisibWave heightAir tempDewpointWater temp
2017-Oct-17 22:15N 49°04' W 126°39'3 8.4
2017-Oct-17 21:55N 49°03' W 126°36'3 8.1
2017-Oct-17 21:30N 49°01' W 126°32'4 8.4
2017-Oct-17 21:00N 48°58' W 126°27'4 8.5
2017-Oct-17 20:30N 48°56' W 126°22'4 8.5
2017-Oct-17 20:00N 48°53' W 126°17'4 8.6
2017-Oct-17 19:30N 48°51' W 126°11'4 8.5
2017-Oct-17 19:00N 48°48' W 126°06'4 8.3
2017-Oct-17 18:30N 48°46' W 126°01'4 7.8
2017-Oct-17 18:00N 48°43' W 125°57'4 7.6
2017-Oct-17 17:30N 48°41' W 125°52'4 7.6
2017-Oct-17 17:00N 48°39' W 125°48'4 7.4
2017-Oct-17 16:30N 48°36' W 125°43'4 7.6
2017-Oct-17 16:00N 48°34' W 125°38'5 9.2
2017-Oct-17 15:31N 48°32' W 125°32'3 6.9
2017-Oct-17 15:00N 48°32' W 125°27'4 7.0
2017-Oct-17 14:30N 48°32' W 125°22'3 6.7
2017-Oct-17 14:00N 48°31' W 125°17'4 6.9
2017-Oct-17 13:30N 48°31' W 125°12'4 7.3
2017-Oct-17 12:59N 48°31' W 125°06'4 8.3
2017-Oct-17 12:30N 48°31' W 124°60'4 9.1
2017-Oct-17 12:00N 48°31' W 124°53'4 9.0
2017-Oct-17 11:30N 48°31' W 124°46'5 9.7
2017-Oct-17 11:00N 48°29' W 124°39'510.0
2017-Oct-17 10:31N 48°27' W 124°32'510.6
2017-Oct-17 10:00N 48°26' W 124°25'510.6
2017-Oct-17 09:30N 48°24' W 124°17'510.6
2017-Oct-17 09:00N 48°22' W 124°10'610.3
2017-Oct-17 08:25N 48°19' W 124°02'510.9
2017-Oct-17 07:57N 48°17' W 123°55'710.7
2017-Oct-17 07:20N 48°17' W 123°45'411.3
2017-Oct-17 07:00N 48°16' W 123°39'510.8
2017-Oct-17 06:30N 48°16' W 123°31'510.5
2017-Oct-17 06:00N 48°20' W 123°27'5 9.2
2017-Oct-17 05:30N 48°23' W 123°21'510.9
2017-Oct-17 05:00N 48°24' W 123°13'613.0
2017-Oct-17 04:30N 48°31' W 123°13'714.0
2017-Oct-17 04:00N 48°38' W 123°14'611.1
2017-Oct-17 03:30N 48°43' W 123°13'713.9
2017-Oct-17 03:00N 48°46' W 123°03'510.1
2017-Oct-17 02:30N 48°51' W 123°03'713.4
2017-Oct-17 02:00N 48°56' W 123°11'713.2
2017-Oct-17 01:30N 49°00' W 123°18'612.2
2017-Oct-17 01:00N 49°05' W 123°24'612.4
2017-Oct-17 00:30N 49°11' W 123°22'612.4
2017-Oct-17 00:00N 49°17' W 123°20'510.1
2017-Oct-16 23:30N 49°18' W 123°12'1 0.9
2017-Oct-16 22:54N 49°17' W 123°12'0 0.0
2017-Oct-16 22:30N 49°17' W 123°12'0 0.1
2017-Oct-16 22:00N 49°17' W 123°12'0 0.1
2017-Oct-16 21:30N 49°17' W 123°12'0 0.1
2017-Oct-16 21:00N 49°17' W 123°12'0 0.0
2017-Oct-16 20:30N 49°17' W 123°12'0 0.1
2017-Oct-16 20:00N 49°17' W 123°12'0 0.1
2017-Oct-16 19:30N 49°17' W 123°12'0 0.1
2017-Oct-16 18:57N 49°17' W 123°12'0 0.0
2017-Oct-16 18:30N 49°17' W 123°12'0 0.0
2017-Oct-16 18:00N 49°17' W 123°12'0 0.1
2017-Oct-16 17:30N 49°17' W 123°12'0 0.2
2017-Oct-16 17:00N 49°17' W 123°12'0 0.1
2017-Oct-16 16:30N 49°17' W 123°12'0 0.0
2017-Oct-16 16:00N 49°17' W 123°12'0 0.0
2017-Oct-16 15:30N 49°17' W 123°12'0 0.1
2017-Oct-16 15:00N 49°17' W 123°12'0 0.1
2017-Oct-16 14:30N 49°17' W 123°12'0 0.1
2017-Oct-16 13:30N 49°17' W 123°12'0 0.2
2017-Oct-16 13:00N 49°17' W 123°12'0 0.1
2017-Oct-16 12:30N 49°17' W 123°12'0 0.0
2017-Oct-16 12:00N 49°17' W 123°12'0 0.1
2017-Oct-16 11:30N 49°17' W 123°12'0 0.0
2017-Oct-16 10:57N 49°17' W 123°12'0 0.0
2017-Oct-16 10:30N 49°17' W 123°12'0 0.1
2017-Oct-16 10:00N 49°17' W 123°12'0 0.0
2017-Oct-16 09:27N 49°17' W 123°12'0 0.0
2017-Oct-16 09:00N 49°17' W 123°12'0 0.2
2017-Oct-16 08:30N 49°17' W 123°12'0 0.0
2017-Oct-16 08:00N 49°17' W 123°12'0 0.0
2017-Oct-16 07:30N 49°17' W 123°12'0 0.1
2017-Oct-16 07:00N 49°17' W 123°12'0 0.1
2017-Oct-16 06:30N 49°17' W 123°12'0 0.1
2017-Oct-16 06:00N 49°18' W 123°12'0 0.2
2017-Oct-16 05:30N 49°18' W 123°12'0 0.1
2017-Oct-16 05:00N 49°18' W 123°12'0 0.1
2017-Oct-16 04:30N 49°17' W 123°12'0 0.1
2017-Oct-16 03:57N 49°17' W 123°12'0 0.0
2017-Oct-16 03:30N 49°17' W 123°12'0 0.0
2017-Oct-16 03:00N 49°17' W 123°12'0 0.0
2017-Oct-16 02:30N 49°17' W 123°12'0 0.0
2017-Oct-16 01:57N 49°17' W 123°12'0 0.1
2017-Oct-16 01:30N 49°17' W 123°12'0 0.1
2017-Oct-16 01:00N 49°18' W 123°12'0 0.2
2017-Oct-16 00:30N 49°18' W 123°12'0 0.2
2017-Oct-16 00:00N 49°17' W 123°12'1 2.9
2017-Oct-15 23:30N 49°19' W 123°10'3 6.7
2017-Oct-15 23:00N 49°18' W 123°05'1 2.0
2017-Oct-15 22:30N 49°17' W 123°04'0 0.0
2017-Oct-15 22:00N 49°17' W 123°04'0 0.0
2017-Oct-15 21:30N 49°17' W 123°04'0 0.0
2017-Oct-15 21:00N 49°17' W 123°04'0 0.0
2017-Oct-15 20:30N 49°17' W 123°04'0 0.0
2017-Oct-15 20:00N 49°17' W 123°04'0 0.0
2017-Oct-15 19:30N 49°17' W 123°04'0 0.0
2017-Oct-15 19:00N 49°17' W 123°04'0 0.0
2017-Oct-15 18:30N 49°17' W 123°04'0 0.0
2017-Oct-15 18:00N 49°17' W 123°04'0 0.0
2017-Oct-15 17:30N 49°17' W 123°04'0 0.0
2017-Oct-15 17:00N 49°17' W 123°04'0 0.0
2017-Oct-15 16:30N 49°17' W 123°04'0 0.0
2017-Oct-15 16:00N 49°17' W 123°04'0 0.0
2017-Oct-15 15:30N 49°17' W 123°04'0 0.0
2017-Oct-15 15:00N 49°17' W 123°04'0 0.0
2017-Oct-15 14:00N 49°17' W 123°04'0 0.0
2017-Oct-15 13:30N 49°17' W 123°04'0 0.0
2017-Oct-15 13:00N 49°17' W 123°04'0 0.0
2017-Oct-15 12:30N 49°17' W 123°04'0 0.0
2017-Oct-15 12:00N 49°17' W 123°04'0 0.0
2017-Oct-15 11:30N 49°17' W 123°04'0 0.0
2017-Oct-15 11:00N 49°17' W 123°04'0 0.0
2017-Oct-15 10:30N 49°17' W 123°04'0 0.0
2017-Oct-15 10:00N 49°17' W 123°04'0 0.0
2017-Oct-15 09:30N 49°17' W 123°04'0 0.0
2017-Oct-15 09:00N 49°17' W 123°04'0 0.0
2017-Oct-15 08:30N 49°17' W 123°04'0 0.0
2017-Oct-15 08:00N 49°17' W 123°04'0 0.0
2017-Oct-15 07:30N 49°17' W 123°04'0 0.0
2017-Oct-15 07:00N 49°17' W 123°04'0 0.0
2017-Oct-15 06:30N 49°17' W 123°04'0 0.0
2017-Oct-15 06:00N 49°17' W 123°04'0 0.0
2017-Oct-15 05:30N 49°17' W 123°04'0 0.0
2017-Oct-15 05:00N 49°17' W 123°04'0 0.0
2017-Oct-15 04:30N 49°17' W 123°04'0 0.0
2017-Oct-15 04:00N 49°17' W 123°04'0 0.0
2017-Oct-15 03:30N 49°17' W 123°04'0 0.0
2017-Oct-15 03:00N 49°17' W 123°04'0 0.0
2017-Oct-15 02:30N 49°17' W 123°04'0 0.0
2017-Oct-15 02:00N 49°17' W 123°04'0 0.0
2017-Oct-15 01:30N 49°17' W 123°04'0 0.0
2017-Oct-15 01:00N 49°17' W 123°04'0 0.0
2017-Oct-15 00:30N 49°17' W 123°04'0 0.0
2017-Oct-15 00:00N 49°17' W 123°04'0 0.0
2017-Oct-14 23:30N 49°17' W 123°04'0 0.0
2017-Oct-14 23:00N 49°17' W 123°04'0 0.0
2017-Oct-14 22:30N 49°17' W 123°04'0 0.0
2017-Oct-14 22:00N 49°17' W 123°04'0 0.0
2017-Oct-14 21:30N 49°17' W 123°04'0 0.0
2017-Oct-14 21:00N 49°17' W 123°04'0 0.0
2017-Oct-14 20:30N 49°17' W 123°04'0 0.0
2017-Oct-14 20:00N 49°17' W 123°04'0 0.0
2017-Oct-14 19:30N 49°17' W 123°04'0 0.0
2017-Oct-14 19:00N 49°17' W 123°04'0 0.0
2017-Oct-14 18:30N 49°17' W 123°04'0 0.0
2017-Oct-14 18:00N 49°17' W 123°04'0 0.0
2017-Oct-14 17:30N 49°17' W 123°04'0 0.0
2017-Oct-14 17:00N 49°17' W 123°04'0 0.0
2017-Oct-14 16:30N 49°17' W 123°04'0 0.0
2017-Oct-14 16:00N 49°17' W 123°04'0 0.0
2017-Oct-14 15:30N 49°17' W 123°04'0 0.0
2017-Oct-14 15:00N 49°17' W 123°04'0 0.0
2017-Oct-14 14:30N 49°17' W 123°04'0 0.0
2017-Oct-14 14:00N 49°17' W 123°04'0 0.0
2017-Oct-14 13:30N 49°17' W 123°04'0 0.0
2017-Oct-14 13:00N 49°17' W 123°04'0 0.0
2017-Oct-14 12:30N 49°17' W 123°04'0 0.0
2017-Oct-14 12:00N 49°17' W 123°04'0 0.0
2017-Oct-14 11:30N 49°17' W 123°04'0 0.0
2017-Oct-14 11:00N 49°17' W 123°04'0 0.0
2017-Oct-14 10:30N 49°17' W 123°04'0 0.0
2017-Oct-14 10:00N 49°17' W 123°04'0 0.0
2017-Oct-14 09:30N 49°17' W 123°04'0 0.0
2017-Oct-14 09:00N 49°17' W 123°04'0 0.6
2017-Oct-14 08:30N 49°18' W 123°04'2 3.7
2017-Oct-14 08:00N 49°18' W 123°07'3 6.7
2017-Oct-14 07:30N 49°19' W 123°12'2 3.3
2017-Oct-14 06:59N 49°20' W 123°14'0 0.0
2017-Oct-14 06:29N 49°20' W 123°14'0 0.0
2017-Oct-14 05:59N 49°20' W 123°14'0 0.0
2017-Oct-14 05:29N 49°20' W 123°14'0 0.0
2017-Oct-14 04:59N 49°20' W 123°14'0 0.1
2017-Oct-14 04:29N 49°20' W 123°14'0 0.0
2017-Oct-14 03:59N 49°20' W 123°14'0 0.1
2017-Oct-14 03:29N 49°20' W 123°14'0 0.3
2017-Oct-14 02:59N 49°20' W 123°14'0 0.2
2017-Oct-14 02:29N 49°20' W 123°14'0 0.1
2017-Oct-14 01:59N 49°20' W 123°14'0 0.1
2017-Oct-14 01:26N 49°20' W 123°14'0 0.0
2017-Oct-14 00:53N 49°20' W 123°14'0 0.1
2017-Oct-14 00:29N 49°20' W 123°14'0 0.0
2017-Oct-13 23:29N 49°20' W 123°14'0 0.1
2017-Oct-13 22:59N 49°20' W 123°14'0 0.1
2017-Oct-13 22:29N 49°20' W 123°14'0 0.1
2017-Oct-13 21:56N 49°20' W 123°14'0 0.0
2017-Oct-13 21:26N 49°20' W 123°14'0 0.0
2017-Oct-13 20:59N 49°20' W 123°14'0 0.0
2017-Oct-13 20:29N 49°20' W 123°14'0 0.0
2017-Oct-13 19:59N 49°20' W 123°14'0 0.0
2017-Oct-13 19:26N 49°20' W 123°14'0 0.0
2017-Oct-13 18:59N 49°20' W 123°14'0 0.0
2017-Oct-13 18:29N 49°20' W 123°14'0 0.0
2017-Oct-13 17:59N 49°20' W 123°14'0 0.0
2017-Oct-13 17:29N 49°20' W 123°14'0 0.0
2017-Oct-13 16:59N 49°20' W 123°14'0 0.1
2017-Oct-13 16:29N 49°20' W 123°14'0 0.0
2017-Oct-13 15:56N 49°20' W 123°14'0 0.0
2017-Oct-13 15:26N 49°20' W 123°14'0 0.1
2017-Oct-13 14:59N 49°20' W 123°14'0 0.1
2017-Oct-13 14:29N 49°20' W 123°14'0 0.1
2017-Oct-13 13:59N 49°20' W 123°14'0 0.1
2017-Oct-13 13:29N 49°20' W 123°14'0 0.1
2017-Oct-13 12:59N 49°20' W 123°14'0 0.1
2017-Oct-13 12:29N 49°20' W 123°14'0 0.3
2017-Oct-13 12:00N 49°20' W 123°14'3 5.5
2017-Oct-13 11:30N 49°19' W 123°10'4 8.1
2017-Oct-13 11:01N 49°18' W 123°04'0 0.3
2017-Oct-13 10:29N 49°17' W 123°04'0 0.0
2017-Oct-13 09:59N 49°17' W 123°04'0 0.0
2017-Oct-13 09:29N 49°17' W 123°04'0 0.0
2017-Oct-13 08:59N 49°17' W 123°04'0 0.0
2017-Oct-13 08:29N 49°17' W 123°04'0 0.0
2017-Oct-13 07:59N 49°17' W 123°04'0 0.0
2017-Oct-13 07:29N 49°17' W 123°04'0 0.0
2017-Oct-13 06:59N 49°17' W 123°04'0 0.0
2017-Oct-13 06:29N 49°17' W 123°04'0 0.0
2017-Oct-13 05:59N 49°17' W 123°04'0 0.0
2017-Oct-13 05:29N 49°17' W 123°04'0 0.0
2017-Oct-13 04:59N 49°17' W 123°04'0 0.0
2017-Oct-13 04:29N 49°17' W 123°04'0 0.0
2017-Oct-13 03:59N 49°17' W 123°04'0 0.0
2017-Oct-13 03:29N 49°17' W 123°04'0 0.0
2017-Oct-13 02:56N 49°17' W 123°04'0 0.0
2017-Oct-13 02:29N 49°17' W 123°04'0 0.0
2017-Oct-13 01:59N 49°17' W 123°04'0 0.0
2017-Oct-13 01:29N 49°17' W 123°04'0 0.0
2017-Oct-13 00:59N 49°17' W 123°04'0 0.0
2017-Oct-13 00:29N 49°17' W 123°04'0 0.0
2017-Oct-12 23:59N 49°17' W 123°04'0 0.0
2017-Oct-12 23:29N 49°17' W 123°04'0 0.0
2017-Oct-12 22:59N 49°17' W 123°04'0 0.0
2017-Oct-12 22:29N 49°17' W 123°04'0 0.0
2017-Oct-12 21:59N 49°17' W 123°04'0 0.0
2017-Oct-12 21:29N 49°17' W 123°04'0 0.0
2017-Oct-12 20:59N 49°17' W 123°04'0 0.0
2017-Oct-12 20:26N 49°17' W 123°04'0 0.0
2017-Oct-12 19:56N 49°17' W 123°04'0 0.0
2017-Oct-12 19:26N 49°17' W 123°04'0 0.0
2017-Oct-12 18:59N 49°17' W 123°04'0 0.0
2017-Oct-12 18:29N 49°17' W 123°04'0 0.0
2017-Oct-12 17:56N 49°17' W 123°04'0 0.0
2017-Oct-12 17:29N 49°17' W 123°04'0 0.0
2017-Oct-12 16:59N 49°17' W 123°04'0 0.0
2017-Oct-12 16:29N 49°17' W 123°04'0 0.0
2017-Oct-12 15:59N 49°17' W 123°04'0 0.0
2017-Oct-12 15:29N 49°17' W 123°04'0 0.0
2017-Oct-12 14:59N 49°17' W 123°04'0 0.0
2017-Oct-12 14:29N 49°17' W 123°04'0 0.0
2017-Oct-12 13:59N 49°17' W 123°04'0 0.0
2017-Oct-12 13:26N 49°17' W 123°04'0 0.0
2017-Oct-12 12:59N 49°17' W 123°04'0 0.0
2017-Oct-12 12:29N 49°17' W 123°04'0 0.0
2017-Oct-12 11:59N 49°17' W 123°04'0 0.0
2017-Oct-12 11:29N 49°17' W 123°04'0 0.0
2017-Oct-12 10:59N 49°17' W 123°04'0 0.0
2017-Oct-12 10:29N 49°17' W 123°04'0 0.0
2017-Oct-12 09:59N 49°17' W 123°04'0 0.0
2017-Oct-12 09:29N 49°17' W 123°04'0 0.0
2017-Oct-12 08:59N 49°17' W 123°04'0 0.0
2017-Oct-12 08:29N 49°17' W 123°04'0 0.0
2017-Oct-12 07:59N 49°17' W 123°04'0 0.0
2017-Oct-12 07:29N 49°17' W 123°04'0 0.0
2017-Oct-12 06:59N 49°17' W 123°04'0 0.0
2017-Oct-12 06:29N 49°17' W 123°04'0 0.0
2017-Oct-12 05:59N 49°17' W 123°04'0 0.0
2017-Oct-12 05:29N 49°17' W 123°04'0 0.0
2017-Oct-12 04:59N 49°17' W 123°04'0 0.0
2017-Oct-12 04:29N 49°17' W 123°04'0 0.0
2017-Oct-12 03:59N 49°17' W 123°04'0 0.0
2017-Oct-12 03:29N 49°17' W 123°04'0 0.0
2017-Oct-12 02:59N 49°17' W 123°04'0 0.0
2017-Oct-12 02:29N 49°17' W 123°04'0 0.0
2017-Oct-12 01:59N 49°17' W 123°04'0 0.0
2017-Oct-12 01:29N 49°17' W 123°04'0 0.0
2017-Oct-12 00:59N 49°17' W 123°04'0 0.0
2017-Oct-12 00:29N 49°17' W 123°04'0 0.0
2017-Oct-11 23:59N 49°17' W 123°04'0 0.0
2017-Oct-11 23:29N 49°17' W 123°04'0 0.0
2017-Oct-11 22:59N 49°17' W 123°04'0 0.0
2017-Oct-11 22:29N 49°17' W 123°04'0 0.0
2017-Oct-11 21:59N 49°17' W 123°04'0 0.0
2017-Oct-11 21:29N 49°17' W 123°04'0 0.0
2017-Oct-11 20:59N 49°17' W 123°04'0 0.0
2017-Oct-11 20:29N 49°17' W 123°04'0 0.0
2017-Oct-11 19:59N 49°17' W 123°04'0 0.0
2017-Oct-11 19:29N 49°17' W 123°04'0 0.0
2017-Oct-11 18:59N 49°17' W 123°04'0 0.0
2017-Oct-11 18:29N 49°17' W 123°04'0 0.0
2017-Oct-11 17:59N 49°17' W 123°04'0 0.0
2017-Oct-11 17:29N 49°17' W 123°04'0 0.0
2017-Oct-11 16:56N 49°17' W 123°04'0 0.0
2017-Oct-10 23:59N 49°17' W 123°04'0 0.0
2017-Oct-10 23:23N 49°17' W 123°04'0 0.0
2017-Oct-10 22:59N 49°17' W 123°04'0 0.0
2017-Oct-10 22:23N 49°17' W 123°04'0 0.0
2017-Oct-10 21:59N 49°17' W 123°04'0 0.0
2017-Oct-10 21:29N 49°17' W 123°04'0 0.0
2017-Oct-10 20:59N 49°17' W 123°04'0 0.0
2017-Oct-10 20:29N 49°17' W 123°04'0 0.0
2017-Oct-10 19:59N 49°17' W 123°04'0 0.0
2017-Oct-10 19:26N 49°17' W 123°04'0 0.0
2017-Oct-10 18:56N 49°17' W 123°04'0 0.0
2017-Oct-10 18:29N 49°17' W 123°04'0 0.0
2017-Oct-10 17:59N 49°17' W 123°04'0 0.0
2017-Oct-10 17:26N 49°17' W 123°04'0 0.0
2017-Oct-10 16:59N 49°17' W 123°04'0 0.0
2017-Oct-10 16:29N 49°17' W 123°04'0 0.0
2017-Oct-10 15:59N 49°17' W 123°04'0 0.0
2017-Oct-10 15:29N 49°17' W 123°04'0 0.0
2017-Oct-10 14:59N 49°17' W 123°04'0 0.0
2017-Oct-10 13:59N 49°17' W 123°04'0 0.0
2017-Oct-10 13:29N 49°17' W 123°04'0 0.0
2017-Oct-10 12:59N 49°17' W 123°04'0 0.0
2017-Oct-10 12:29N 49°17' W 123°04'0 0.0
2017-Oct-10 11:59N 49°17' W 123°04'0 0.0
2017-Oct-10 11:29N 49°17' W 123°04'0 0.0
2017-Oct-10 10:59N 49°17' W 123°04'0 0.0
2017-Oct-10 10:29N 49°17' W 123°04'0 0.0
2017-Oct-10 09:59N 49°17' W 123°04'0 0.0
2017-Oct-10 09:29N 49°17' W 123°04'0 0.0
2017-Oct-10 08:59N 49°17' W 123°04'0 0.0
2017-Oct-10 08:29N 49°17' W 123°04'0 0.0
2017-Oct-10 07:59N 49°17' W 123°04'0 0.0
2017-Oct-10 07:29N 49°17' W 123°04'0 0.0
2017-Oct-10 06:59N 49°17' W 123°04'0 0.0
2017-Oct-10 06:29N 49°17' W 123°04'0 0.0
2017-Oct-10 05:59N 49°17' W 123°04'0 0.0
2017-Oct-10 05:29N 49°17' W 123°04'0 0.0
2017-Oct-10 04:59N 49°17' W 123°04'0 0.0
2017-Oct-10 04:29N 49°17' W 123°04'0 0.0
2017-Oct-10 03:59N 49°17' W 123°04'0 0.0
2017-Oct-10 03:29N 49°17' W 123°04'0 0.0
2017-Oct-10 02:59N 49°17' W 123°04'0 0.0
2017-Oct-10 02:29N 49°17' W 123°04'0 0.0
2017-Oct-10 01:59N 49°17' W 123°04'0 0.0
2017-Oct-10 01:29N 49°17' W 123°04'0 0.0
2017-Oct-10 00:59N 49°17' W 123°04'0 0.0
2017-Oct-10 00:29N 49°17' W 123°04'0 0.0
2017-Oct-09 23:59N 49°17' W 123°04'0 0.0
2017-Oct-09 23:29N 49°17' W 123°04'0 0.0
2017-Oct-09 22:59N 49°17' W 123°04'0 0.0
2017-Oct-09 22:29N 49°17' W 123°04'0 0.0
2017-Oct-09 21:59N 49°17' W 123°04'0 0.0
2017-Oct-09 21:29N 49°17' W 123°04'0 0.0
2017-Oct-09 20:59N 49°17' W 123°04'0 0.0
2017-Oct-09 20:29N 49°17' W 123°04'0 0.0
2017-Oct-09 19:59N 49°17' W 123°04'0 0.0
2017-Oct-09 19:29N 49°17' W 123°04'0 0.0
2017-Oct-09 18:59N 49°17' W 123°04'0 0.0
2017-Oct-09 18:29N 49°17' W 123°04'0 0.0
2017-Oct-09 17:59N 49°17' W 123°04'0 0.0
2017-Oct-09 17:29N 49°17' W 123°04'0 0.0
2017-Oct-09 16:59N 49°17' W 123°04'0 0.0
2017-Oct-09 16:29N 49°17' W 123°04'0 0.0
2017-Oct-09 15:59N 49°17' W 123°04'0 0.0
2017-Oct-09 15:29N 49°17' W 123°04'0 0.0
2017-Oct-09 14:59N 49°17' W 123°04'0 0.0
2017-Oct-09 14:29N 49°17' W 123°04'0 0.0
2017-Oct-09 13:59N 49°17' W 123°04'0 0.0
2017-Oct-09 13:29N 49°17' W 123°04'0 0.0
2017-Oct-09 12:59N 49°17' W 123°04'0 0.0
2017-Oct-09 12:29N 49°17' W 123°04'0 0.0
2017-Oct-09 11:59N 49°17' W 123°04'0 0.0
2017-Oct-09 11:29N 49°17' W 123°04'0 0.0
2017-Oct-09 10:59N 49°17' W 123°04'0 0.0
2017-Oct-09 10:29N 49°17' W 123°04'0 0.0
2017-Oct-09 09:59N 49°17' W 123°04'0 0.0
2017-Oct-09 09:29N 49°17' W 123°04'0 0.0
2017-Oct-09 08:59N 49°17' W 123°04'0 0.0
2017-Oct-09 08:29N 49°17' W 123°04'0 0.0
2017-Oct-09 07:59N 49°17' W 123°04'0 0.0
2017-Oct-09 07:29N 49°17' W 123°04'0 0.0
2017-Oct-09 06:59N 49°17' W 123°04'0 0.0
2017-Oct-09 06:29N 49°17' W 123°04'0 0.0
2017-Oct-09 05:59N 49°17' W 123°04'0 0.0
2017-Oct-09 05:29N 49°17' W 123°04'0 0.0
2017-Oct-09 04:59N 49°17' W 123°04'0 0.0
2017-Oct-09 04:29N 49°17' W 123°04'0 0.0
2017-Oct-09 03:59N 49°17' W 123°04'0 0.0
2017-Oct-09 03:29N 49°17' W 123°04'0 0.0
2017-Oct-09 02:59N 49°17' W 123°04'0 0.1
2017-Oct-09 02:30N 49°17' W 123°04'1 2.5
2017-Oct-09 02:00N 49°18' W 123°05'0 0.1
2017-Oct-09 01:29N 49°18' W 123°05'0 0.3
2017-Oct-09 00:59N 49°18' W 123°05'0 0.1
2017-Oct-09 00:29N 49°18' W 123°05'0 0.1
2017-Oct-08 23:56N 49°18' W 123°05'0 0.0
2017-Oct-08 23:29N 49°18' W 123°05'0 0.1
2017-Oct-08 22:59N 49°18' W 123°05'0 0.3
2017-Oct-08 22:30N 49°18' W 123°06'1 2.1
2017-Oct-08 22:00N 49°18' W 123°07'510.2
2017-Oct-08 21:30N 49°18' W 123°15'611.9
2017-Oct-08 21:00N 49°13' W 123°19'713.1
2017-Oct-08 20:30N 49°06' W 123°21'611.7
2017-Oct-08 20:00N 49°01' W 123°17'612.8
2017-Oct-08 19:30N 48°57' W 123°10'612.6
2017-Oct-08 19:00N 48°52' W 123°03'510.6
2017-Oct-08 18:30N 48°47' W 123°00'611.1
2017-Oct-08 18:00N 48°44' W 123°08'611.8
2017-Oct-08 17:30N 48°44' W 123°17'713.6
2017-Oct-08 17:00N 48°50' W 123°21'713.9
2017-Oct-08 16:30N 48°55' W 123°29'5 9.5
2017-Oct-08 16:00N 48°56' W 123°37'3 6.9
2017-Oct-08 15:30N 48°56' W 123°42'2 3.6
2017-Oct-08 14:55N 48°57' W 123°44'0 0.1
2017-Oct-08 14:28N 48°57' W 123°44'0 0.0
2017-Oct-08 13:58N 48°57' W 123°44'0 0.0
2017-Oct-08 13:22N 48°57' W 123°44'0 0.0
2017-Oct-08 12:55N 48°57' W 123°44'0 0.1
2017-Oct-08 12:28N 48°57' W 123°44'0 0.0
2017-Oct-08 11:58N 48°57' W 123°44'0 0.0
2017-Oct-08 11:25N 48°57' W 123°44'0 0.0
2017-Oct-08 10:55N 48°57' W 123°44'0 0.0
2017-Oct-08 10:28N 48°57' W 123°44'0 0.0
2017-Oct-08 09:58N 48°57' W 123°44'0 0.1
2017-Oct-08 09:28N 48°57' W 123°44'0 0.1
2017-Oct-08 08:58N 48°57' W 123°44'0 0.0
2017-Oct-08 08:01N 48°57' W 123°44'0 0.0
2017-Oct-08 07:37N 48°57' W 123°44'0 0.0
2017-Oct-08 07:28N 48°57' W 123°44'0 0.1
2017-Oct-08 06:58N 48°57' W 123°44'0 0.1
2017-Oct-08 06:28N 48°57' W 123°44'0 0.0
2017-Oct-08 05:58N 48°57' W 123°44'0 0.0
2017-Oct-08 05:28N 48°57' W 123°44'0 0.0
2017-Oct-08 04:55N 48°57' W 123°44'0 0.0
2017-Oct-08 04:28N 48°57' W 123°44'0 0.0
2017-Oct-08 03:58N 48°57' W 123°44'0 0.0
2017-Oct-08 03:25N 48°57' W 123°44'0 0.0
2017-Oct-08 02:55N 48°57' W 123°44'0 0.0
2017-Oct-08 02:28N 48°57' W 123°44'0 0.1
2017-Oct-08 01:55N 48°57' W 123°44'0 0.0
2017-Oct-08 01:28N 48°57' W 123°44'0 0.2
2017-Oct-08 00:46N 48°57' W 123°44'0 0.3
2017-Oct-08 00:25N 48°57' W 123°45'0 0.1
2017-Oct-07 23:52N 48°57' W 123°45'0 0.0
2017-Oct-07 23:28N 48°57' W 123°45'0 0.1
2017-Oct-07 22:58N 48°57' W 123°45'0 0.0
2017-Oct-07 22:28N 48°57' W 123°45'  
Track history (hours):
 
Tides and Currents Weather Stations Pressure Air Temp Water Temp Dewpoint Dewpoint Depression Visibility Wind Speed Wind Dir Waves Ship Positions

Poseidon

Last reported at 2017-Oct-17 22:15 UTC. Time now 2017-Oct-18 06:07 UTC.
Position N 49°04' W 126°39'.

Length 224 m; draft 13.1 m.

Type: Ship. MMSI: 239896000.

Date/timePositionNaut miles runAvg speedWind from/ knotsBaromVisibWave heightAir tempDewpointWater temp
2017-Oct-17 22:15N 49°04' W 126°39'3 8.4
2017-Oct-17 21:55N 49°03' W 126°36'3 8.1
2017-Oct-17 21:30N 49°01' W 126°32'4 8.4
2017-Oct-17 21:00N 48°58' W 126°27'4 8.5
2017-Oct-17 20:30N 48°56' W 126°22'4 8.5
2017-Oct-17 20:00N 48°53' W 126°17'4 8.6
2017-Oct-17 19:30N 48°51' W 126°11'4 8.5
2017-Oct-17 19:00N 48°48' W 126°06'4 8.3
2017-Oct-17 18:30N 48°46' W 126°01'4 7.8
2017-Oct-17 18:00N 48°43' W 125°57'4 7.6
2017-Oct-17 17:30N 48°41' W 125°52'4 7.6
2017-Oct-17 17:00N 48°39' W 125°48'4 7.4
2017-Oct-17 16:30N 48°36' W 125°43'4 7.6
2017-Oct-17 16:00N 48°34' W 125°38'5 9.2
2017-Oct-17 15:31N 48°32' W 125°32'3 6.9
2017-Oct-17 15:00N 48°32' W 125°27'4 7.0
2017-Oct-17 14:30N 48°32' W 125°22'3 6.7
2017-Oct-17 14:00N 48°31' W 125°17'4 6.9
2017-Oct-17 13:30N 48°31' W 125°12'4 7.3
2017-Oct-17 12:59N 48°31' W 125°06'4 8.3
2017-Oct-17 12:30N 48°31' W 124°60'4 9.1
2017-Oct-17 12:00N 48°31' W 124°53'4 9.0
2017-Oct-17 11:30N 48°31' W 124°46'5 9.7
2017-Oct-17 11:00N 48°29' W 124°39'510.0
2017-Oct-17 10:31N 48°27' W 124°32'510.6
2017-Oct-17 10:00N 48°26' W 124°25'510.6
2017-Oct-17 09:30N 48°24' W 124°17'510.6
2017-Oct-17 09:00N 48°22' W 124°10'610.3
2017-Oct-17 08:25N 48°19' W 124°02'510.9
2017-Oct-17 07:57N 48°17' W 123°55'710.7
2017-Oct-17 07:20N 48°17' W 123°45'411.3
2017-Oct-17 07:00N 48°16' W 123°39'510.8
2017-Oct-17 06:30N 48°16' W 123°31'510.5
2017-Oct-17 06:00N 48°20' W 123°27'5 9.2
2017-Oct-17 05:30N 48°23' W 123°21'510.9
2017-Oct-17 05:00N 48°24' W 123°13'613.0
2017-Oct-17 04:30N 48°31' W 123°13'714.0
2017-Oct-17 04:00N 48°38' W 123°14'611.1
2017-Oct-17 03:30N 48°43' W 123°13'713.9
2017-Oct-17 03:00N 48°46' W 123°03'510.1
2017-Oct-17 02:30N 48°51' W 123°03'713.4
2017-Oct-17 02:00N 48°56' W 123°11'713.2
2017-Oct-17 01:30N 49°00' W 123°18'612.2
2017-Oct-17 01:00N 49°05' W 123°24'612.4
2017-Oct-17 00:30N 49°11' W 123°22'612.4
2017-Oct-17 00:00N 49°17' W 123°20'510.1
2017-Oct-16 23:30N 49°18' W 123°12'1 0.9
2017-Oct-16 22:54N 49°17' W 123°12'0 0.0
2017-Oct-16 22:30N 49°17' W 123°12'0 0.1
2017-Oct-16 22:00N 49°17' W 123°12'0 0.1
2017-Oct-16 21:30N 49°17' W 123°12'0 0.1
2017-Oct-16 21:00N 49°17' W 123°12'0 0.0
2017-Oct-16 20:30N 49°17' W 123°12'0 0.1
2017-Oct-16 20:00N 49°17' W 123°12'0 0.1
2017-Oct-16 19:30N 49°17' W 123°12'0 0.1
2017-Oct-16 18:57N 49°17' W 123°12'0 0.0
2017-Oct-16 18:30N 49°17' W 123°12'0 0.0
2017-Oct-16 18:00N 49°17' W 123°12'0 0.1
2017-Oct-16 17:30N 49°17' W 123°12'0 0.2
2017-Oct-16 17:00N 49°17' W 123°12'0 0.1
2017-Oct-16 16:30N 49°17' W 123°12'0 0.0
2017-Oct-16 16:00N 49°17' W 123°12'0 0.0
2017-Oct-16 15:30N 49°17' W 123°12'0 0.1
2017-Oct-16 15:00N 49°17' W 123°12'0 0.1
2017-Oct-16 14:30N 49°17' W 123°12'0 0.1
2017-Oct-16 13:30N 49°17' W 123°12'0 0.2
2017-Oct-16 13:00N 49°17' W 123°12'0 0.1
2017-Oct-16 12:30N 49°17' W 123°12'0 0.0
2017-Oct-16 12:00N 49°17' W 123°12'0 0.1
2017-Oct-16 11:30N 49°17' W 123°12'0 0.0
2017-Oct-16 10:57N 49°17' W 123°12'0 0.0
2017-Oct-16 10:30N 49°17' W 123°12'0 0.1
2017-Oct-16 10:00N 49°17' W 123°12'0 0.0
2017-Oct-16 09:27N 49°17' W 123°12'0 0.0
2017-Oct-16 09:00N 49°17' W 123°12'0 0.2
2017-Oct-16 08:30N 49°17' W 123°12'0 0.0
2017-Oct-16 08:00N 49°17' W 123°12'0 0.0
2017-Oct-16 07:30N 49°17' W 123°12'0 0.1
2017-Oct-16 07:00N 49°17' W 123°12'0 0.1
2017-Oct-16 06:30N 49°17' W 123°12'0 0.1
2017-Oct-16 06:00N 49°18' W 123°12'0 0.2
2017-Oct-16 05:30N 49°18' W 123°12'0 0.1
2017-Oct-16 05:00N 49°18' W 123°12'0 0.1
2017-Oct-16 04:30N 49°17' W 123°12'0 0.1
2017-Oct-16 03:57N 49°17' W 123°12'0 0.0
2017-Oct-16 03:30N 49°17' W 123°12'0 0.0
2017-Oct-16 03:00N 49°17' W 123°12'0 0.0
2017-Oct-16 02:30N 49°17' W 123°12'0 0.0
2017-Oct-16 01:57N 49°17' W 123°12'0 0.1
2017-Oct-16 01:30N 49°17' W 123°12'0 0.1
2017-Oct-16 01:00N 49°18' W 123°12'0 0.2
2017-Oct-16 00:30N 49°18' W 123°12'0 0.2
2017-Oct-16 00:00N 49°17' W 123°12'1 2.9
2017-Oct-15 23:30N 49°19' W 123°10'3 6.7
2017-Oct-15 23:00N 49°18' W 123°05'1 2.0
2017-Oct-15 22:30N 49°17' W 123°04'0 0.0
2017-Oct-15 22:00N 49°17' W 123°04'0 0.0
2017-Oct-15 21:30N 49°17' W 123°04'0 0.0
2017-Oct-15 21:00N 49°17' W 123°04'0 0.0
2017-Oct-15 20:30N 49°17' W 123°04'0 0.0
2017-Oct-15 20:00N 49°17' W 123°04'0 0.0
2017-Oct-15 19:30N 49°17' W 123°04'0 0.0
2017-Oct-15 19:00N 49°17' W 123°04'0 0.0
2017-Oct-15 18:30N 49°17' W 123°04'0 0.0
2017-Oct-15 18:00N 49°17' W 123°04'0 0.0
2017-Oct-15 17:30N 49°17' W 123°04'0 0.0
2017-Oct-15 17:00N 49°17' W 123°04'0 0.0
2017-Oct-15 16:30N 49°17' W 123°04'0 0.0
2017-Oct-15 16:00N 49°17' W 123°04'0 0.0
2017-Oct-15 15:30N 49°17' W 123°04'0 0.0
2017-Oct-15 15:00N 49°17' W 123°04'0 0.0
2017-Oct-15 14:00N 49°17' W 123°04'0 0.0
2017-Oct-15 13:30N 49°17' W 123°04'0 0.0
2017-Oct-15 13:00N 49°17' W 123°04'0 0.0
2017-Oct-15 12:30N 49°17' W 123°04'0 0.0
2017-Oct-15 12:00N 49°17' W 123°04'0 0.0
2017-Oct-15 11:30N 49°17' W 123°04'0 0.0
2017-Oct-15 11:00N 49°17' W 123°04'0 0.0
2017-Oct-15 10:30N 49°17' W 123°04'0 0.0
2017-Oct-15 10:00N 49°17' W 123°04'0 0.0
2017-Oct-15 09:30N 49°17' W 123°04'0 0.0
2017-Oct-15 09:00N 49°17' W 123°04'0 0.0
2017-Oct-15 08:30N 49°17' W 123°04'0 0.0
2017-Oct-15 08:00N 49°17' W 123°04'0 0.0
2017-Oct-15 07:30N 49°17' W 123°04'0 0.0
2017-Oct-15 07:00N 49°17' W 123°04'0 0.0
2017-Oct-15 06:30N 49°17' W 123°04'0 0.0
2017-Oct-15 06:00N 49°17' W 123°04'0 0.0
2017-Oct-15 05:30N 49°17' W 123°04'0 0.0
2017-Oct-15 05:00N 49°17' W 123°04'0 0.0
2017-Oct-15 04:30N 49°17' W 123°04'0 0.0
2017-Oct-15 04:00N 49°17' W 123°04'0 0.0
2017-Oct-15 03:30N 49°17' W 123°04'0 0.0
2017-Oct-15 03:00N 49°17' W 123°04'0 0.0
2017-Oct-15 02:30N 49°17' W 123°04'0 0.0
2017-Oct-15 02:00N 49°17' W 123°04'0 0.0
2017-Oct-15 01:30N 49°17' W 123°04'0 0.0
2017-Oct-15 01:00N 49°17' W 123°04'0 0.0
2017-Oct-15 00:30N 49°17' W 123°04'0 0.0
2017-Oct-15 00:00N 49°17' W 123°04'0 0.0
2017-Oct-14 23:30N 49°17' W 123°04'0 0.0
2017-Oct-14 23:00N 49°17' W 123°04'0 0.0
2017-Oct-14 22:30N 49°17' W 123°04'0 0.0
2017-Oct-14 22:00N 49°17' W 123°04'0 0.0
2017-Oct-14 21:30N 49°17' W 123°04'0 0.0
2017-Oct-14 21:00N 49°17' W 123°04'0 0.0
2017-Oct-14 20:30N 49°17' W 123°04'0 0.0
2017-Oct-14 20:00N 49°17' W 123°04'0 0.0
2017-Oct-14 19:30N 49°17' W 123°04'0 0.0
2017-Oct-14 19:00N 49°17' W 123°04'0 0.0
2017-Oct-14 18:30N 49°17' W 123°04'0 0.0
2017-Oct-14 18:00N 49°17' W 123°04'0 0.0
2017-Oct-14 17:30N 49°17' W 123°04'0 0.0
2017-Oct-14 17:00N 49°17' W 123°04'0 0.0
2017-Oct-14 16:30N 49°17' W 123°04'0 0.0
2017-Oct-14 16:00N 49°17' W 123°04'0 0.0
2017-Oct-14 15:30N 49°17' W 123°04'0 0.0
2017-Oct-14 15:00N 49°17' W 123°04'0 0.0
2017-Oct-14 14:30N 49°17' W 123°04'0 0.0
2017-Oct-14 14:00N 49°17' W 123°04'0 0.0
2017-Oct-14 13:30N 49°17' W 123°04'0 0.0
2017-Oct-14 13:00N 49°17' W 123°04'0 0.0
2017-Oct-14 12:30N 49°17' W 123°04'0 0.0
2017-Oct-14 12:00N 49°17' W 123°04'0 0.0
2017-Oct-14 11:30N 49°17' W 123°04'0 0.0
2017-Oct-14 11:00N 49°17' W 123°04'0 0.0
2017-Oct-14 10:30N 49°17' W 123°04'0 0.0
2017-Oct-14 10:00N 49°17' W 123°04'0 0.0
2017-Oct-14 09:30N 49°17' W 123°04'0 0.0
2017-Oct-14 09:00N 49°17' W 123°04'0 0.6
2017-Oct-14 08:30N 49°18' W 123°04'2 3.7
2017-Oct-14 08:00N 49°18' W 123°07'3 6.7
2017-Oct-14 07:30N 49°19' W 123°12'2 3.3
2017-Oct-14 06:59N 49°20' W 123°14'0 0.0
2017-Oct-14 06:29N 49°20' W 123°14'0 0.0
2017-Oct-14 05:59N 49°20' W 123°14'0 0.0
2017-Oct-14 05:29N 49°20' W 123°14'0 0.0
2017-Oct-14 04:59N 49°20' W 123°14'0 0.1
2017-Oct-14 04:29N 49°20' W 123°14'0 0.0
2017-Oct-14 03:59N 49°20' W 123°14'0 0.1
2017-Oct-14 03:29N 49°20' W 123°14'0 0.3
2017-Oct-14 02:59N 49°20' W 123°14'0 0.2
2017-Oct-14 02:29N 49°20' W 123°14'0 0.1
2017-Oct-14 01:59N 49°20' W 123°14'0 0.1
2017-Oct-14 01:26N 49°20' W 123°14'0 0.0
2017-Oct-14 00:53N 49°20' W 123°14'0 0.1
2017-Oct-14 00:29N 49°20' W 123°14'0 0.0
2017-Oct-13 23:29N 49°20' W 123°14'0 0.1
2017-Oct-13 22:59N 49°20' W 123°14'0 0.1
2017-Oct-13 22:29N 49°20' W 123°14'0 0.1
2017-Oct-13 21:56N 49°20' W 123°14'0 0.0
2017-Oct-13 21:26N 49°20' W 123°14'0 0.0
2017-Oct-13 20:59N 49°20' W 123°14'0 0.0
2017-Oct-13 20:29N 49°20' W 123°14'0 0.0
2017-Oct-13 19:59N 49°20' W 123°14'0 0.0
2017-Oct-13 19:26N 49°20' W 123°14'0 0.0
2017-Oct-13 18:59N 49°20' W 123°14'0 0.0
2017-Oct-13 18:29N 49°20' W 123°14'0 0.0
2017-Oct-13 17:59N 49°20' W 123°14'0 0.0
2017-Oct-13 17:29N 49°20' W 123°14'0 0.0
2017-Oct-13 16:59N 49°20' W 123°14'0 0.1
2017-Oct-13 16:29N 49°20' W 123°14'0 0.0
2017-Oct-13 15:56N 49°20' W 123°14'0 0.0
2017-Oct-13 15:26N 49°20' W 123°14'0 0.1
2017-Oct-13 14:59N 49°20' W 123°14'0 0.1
2017-Oct-13 14:29N 49°20' W 123°14'0 0.1
2017-Oct-13 13:59N 49°20' W 123°14'0 0.1
2017-Oct-13 13:29N 49°20' W 123°14'0 0.1
2017-Oct-13 12:59N 49°20' W 123°14'0 0.1
2017-Oct-13 12:29N 49°20' W 123°14'0 0.3
2017-Oct-13 12:00N 49°20' W 123°14'3 5.5
2017-Oct-13 11:30N 49°19' W 123°10'4 8.1
2017-Oct-13 11:01N 49°18' W 123°04'0 0.3
2017-Oct-13 10:29N 49°17' W 123°04'0 0.0
2017-Oct-13 09:59N 49°17' W 123°04'0 0.0
2017-Oct-13 09:29N 49°17' W 123°04'0 0.0
2017-Oct-13 08:59N 49°17' W 123°04'0 0.0
2017-Oct-13 08:29N 49°17' W 123°04'0 0.0
2017-Oct-13 07:59N 49°17' W 123°04'0 0.0
2017-Oct-13 07:29N 49°17' W 123°04'0 0.0
2017-Oct-13 06:59N 49°17' W 123°04'0 0.0
2017-Oct-13 06:29N 49°17' W 123°04'0 0.0
2017-Oct-13 05:59N 49°17' W 123°04'0 0.0
2017-Oct-13 05:29N 49°17' W 123°04'0 0.0
2017-Oct-13 04:59N 49°17' W 123°04'0 0.0
2017-Oct-13 04:29N 49°17' W 123°04'0 0.0
2017-Oct-13 03:59N 49°17' W 123°04'0 0.0
2017-Oct-13 03:29N 49°17' W 123°04'0 0.0
2017-Oct-13 02:56N 49°17' W 123°04'0 0.0
2017-Oct-13 02:29N 49°17' W 123°04'0 0.0
2017-Oct-13 01:59N 49°17' W 123°04'0 0.0
2017-Oct-13 01:29N 49°17' W 123°04'0 0.0
2017-Oct-13 00:59N 49°17' W 123°04'0 0.0
2017-Oct-13 00:29N 49°17' W 123°04'0 0.0
2017-Oct-12 23:59N 49°17' W 123°04'0 0.0
2017-Oct-12 23:29N 49°17' W 123°04'0 0.0
2017-Oct-12 22:59N 49°17' W 123°04'0 0.0
2017-Oct-12 22:29N 49°17' W 123°04'0 0.0
2017-Oct-12 21:59N 49°17' W 123°04'0 0.0
2017-Oct-12 21:29N 49°17' W 123°04'0 0.0
2017-Oct-12 20:59N 49°17' W 123°04'0 0.0
2017-Oct-12 20:26N 49°17' W 123°04'0 0.0
2017-Oct-12 19:56N 49°17' W 123°04'0 0.0
2017-Oct-12 19:26N 49°17' W 123°04'0 0.0
2017-Oct-12 18:59N 49°17' W 123°04'0 0.0
2017-Oct-12 18:29N 49°17' W 123°04'0 0.0
2017-Oct-12 17:56N 49°17' W 123°04'0 0.0
2017-Oct-12 17:29N 49°17' W 123°04'0 0.0
2017-Oct-12 16:59N 49°17' W 123°04'0 0.0
2017-Oct-12 16:29N 49°17' W 123°04'0 0.0
2017-Oct-12 15:59N 49°17' W 123°04'0 0.0
2017-Oct-12 15:29N 49°17' W 123°04'0 0.0
2017-Oct-12 14:59N 49°17' W 123°04'0 0.0
2017-Oct-12 14:29N 49°17' W 123°04'0 0.0
2017-Oct-12 13:59N 49°17' W 123°04'0 0.0
2017-Oct-12 13:26N 49°17' W 123°04'0 0.0
2017-Oct-12 12:59N 49°17' W 123°04'0 0.0
2017-Oct-12 12:29N 49°17' W 123°04'0 0.0
2017-Oct-12 11:59N 49°17' W 123°04'0 0.0
2017-Oct-12 11:29N 49°17' W 123°04'0 0.0
2017-Oct-12 10:59N 49°17' W 123°04'0 0.0
2017-Oct-12 10:29N 49°17' W 123°04'0 0.0
2017-Oct-12 09:59N 49°17' W 123°04'0 0.0
2017-Oct-12 09:29N 49°17' W 123°04'0 0.0
2017-Oct-12 08:59N 49°17' W 123°04'0 0.0
2017-Oct-12 08:29N 49°17' W 123°04'0 0.0
2017-Oct-12 07:59N 49°17' W 123°04'0 0.0
2017-Oct-12 07:29N 49°17' W 123°04'0 0.0
2017-Oct-12 06:59N 49°17' W 123°04'0 0.0
2017-Oct-12 06:29N 49°17' W 123°04'0 0.0
2017-Oct-12 05:59N 49°17' W 123°04'0 0.0
2017-Oct-12 05:29N 49°17' W 123°04'0 0.0
2017-Oct-12 04:59N 49°17' W 123°04'0 0.0
2017-Oct-12 04:29N 49°17' W 123°04'0 0.0
2017-Oct-12 03:59N 49°17' W 123°04'0 0.0
2017-Oct-12 03:29N 49°17' W 123°04'0 0.0
2017-Oct-12 02:59N 49°17' W 123°04'0 0.0
2017-Oct-12 02:29N 49°17' W 123°04'0 0.0
2017-Oct-12 01:59N 49°17' W 123°04'0 0.0
2017-Oct-12 01:29N 49°17' W 123°04'0 0.0
2017-Oct-12 00:59N 49°17' W 123°04'0 0.0
2017-Oct-12 00:29N 49°17' W 123°04'0 0.0
2017-Oct-11 23:59N 49°17' W 123°04'0 0.0
2017-Oct-11 23:29N 49°17' W 123°04'0 0.0
2017-Oct-11 22:59N 49°17' W 123°04'0 0.0
2017-Oct-11 22:29N 49°17' W 123°04'0 0.0
2017-Oct-11 21:59N 49°17' W 123°04'0 0.0
2017-Oct-11 21:29N 49°17' W 123°04'0 0.0
2017-Oct-11 20:59N 49°17' W 123°04'0 0.0
2017-Oct-11 20:29N 49°17' W 123°04'0 0.0
2017-Oct-11 19:59N 49°17' W 123°04'0 0.0
2017-Oct-11 19:29N 49°17' W 123°04'0 0.0
2017-Oct-11 18:59N 49°17' W 123°04'0 0.0
2017-Oct-11 18:29N 49°17' W 123°04'0 0.0
2017-Oct-11 17:59N 49°17' W 123°04'0 0.0
2017-Oct-11 17:29N 49°17' W 123°04'0 0.0
2017-Oct-11 16:56N 49°17' W 123°04'0 0.0
2017-Oct-10 23:59N 49°17' W 123°04'0 0.0
2017-Oct-10 23:23N 49°17' W 123°04'0 0.0
2017-Oct-10 22:59N 49°17' W 123°04'0 0.0
2017-Oct-10 22:23N 49°17' W 123°04'0 0.0
2017-Oct-10 21:59N 49°17' W 123°04'0 0.0
2017-Oct-10 21:29N 49°17' W 123°04'0 0.0
2017-Oct-10 20:59N 49°17' W 123°04'0 0.0
2017-Oct-10 20:29N 49°17' W 123°04'0 0.0
2017-Oct-10 19:59N 49°17' W 123°04'0 0.0
2017-Oct-10 19:26N 49°17' W 123°04'0 0.0
2017-Oct-10 18:56N 49°17' W 123°04'0 0.0
2017-Oct-10 18:29N 49°17' W 123°04'0 0.0
2017-Oct-10 17:59N 49°17' W 123°04'0 0.0
2017-Oct-10 17:26N 49°17' W 123°04'0 0.0
2017-Oct-10 16:59N 49°17' W 123°04'0 0.0
2017-Oct-10 16:29N 49°17' W 123°04'0 0.0
2017-Oct-10 15:59N 49°17' W 123°04'0 0.0
2017-Oct-10 15:29N 49°17' W 123°04'0 0.0
2017-Oct-10 14:59N 49°17' W 123°04'0 0.0
2017-Oct-10 13:59N 49°17' W 123°04'0 0.0
2017-Oct-10 13:29N 49°17' W 123°04'0 0.0
2017-Oct-10 12:59N 49°17' W 123°04'0 0.0
2017-Oct-10 12:29N 49°17' W 123°04'0 0.0
2017-Oct-10 11:59N 49°17' W 123°04'0 0.0
2017-Oct-10 11:29N 49°17' W 123°04'0 0.0
2017-Oct-10 10:59N 49°17' W 123°04'0 0.0
2017-Oct-10 10:29N 49°17' W 123°04'0 0.0
2017-Oct-10 09:59N 49°17' W 123°04'0 0.0
2017-Oct-10 09:29N 49°17' W 123°04'0 0.0
2017-Oct-10 08:59N 49°17' W 123°04'0 0.0
2017-Oct-10 08:29N 49°17' W 123°04'0 0.0
2017-Oct-10 07:59N 49°17' W 123°04'0 0.0
2017-Oct-10 07:29N 49°17' W 123°04'0 0.0
2017-Oct-10 06:59N 49°17' W 123°04'0 0.0
2017-Oct-10 06:29N 49°17' W 123°04'0 0.0
2017-Oct-10 05:59N 49°17' W 123°04'0 0.0
2017-Oct-10 05:29N 49°17' W 123°04'0 0.0
2017-Oct-10 04:59N 49°17' W 123°04'0 0.0
2017-Oct-10 04:29N 49°17' W 123°04'0 0.0
2017-Oct-10 03:59N 49°17' W 123°04'0 0.0
2017-Oct-10 03:29N 49°17' W 123°04'0 0.0
2017-Oct-10 02:59N 49°17' W 123°04'0 0.0
2017-Oct-10 02:29N 49°17' W 123°04'0 0.0
2017-Oct-10 01:59N 49°17' W 123°04'0 0.0
2017-Oct-10 01:29N 49°17' W 123°04'0 0.0
2017-Oct-10 00:59N 49°17' W 123°04'0 0.0
2017-Oct-10 00:29N 49°17' W 123°04'0 0.0
2017-Oct-09 23:59N 49°17' W 123°04'0 0.0
2017-Oct-09 23:29N 49°17' W 123°04'0 0.0
2017-Oct-09 22:59N 49°17' W 123°04'0 0.0
2017-Oct-09 22:29N 49°17' W 123°04'0 0.0
2017-Oct-09 21:59N 49°17' W 123°04'0 0.0
2017-Oct-09 21:29N 49°17' W 123°04'0 0.0
2017-Oct-09 20:59N 49°17' W 123°04'0 0.0
2017-Oct-09 20:29N 49°17' W 123°04'0 0.0
2017-Oct-09 19:59N 49°17' W 123°04'0 0.0
2017-Oct-09 19:29N 49°17' W 123°04'0 0.0
2017-Oct-09 18:59N 49°17' W 123°04'0 0.0
2017-Oct-09 18:29N 49°17' W 123°04'0 0.0
2017-Oct-09 17:59N 49°17' W 123°04'0 0.0
2017-Oct-09 17:29N 49°17' W 123°04'0 0.0
2017-Oct-09 16:59N 49°17' W 123°04'0 0.0
2017-Oct-09 16:29N 49°17' W 123°04'0 0.0
2017-Oct-09 15:59N 49°17' W 123°04'0 0.0
2017-Oct-09 15:29N 49°17' W 123°04'0 0.0
2017-Oct-09 14:59N 49°17' W 123°04'0 0.0
2017-Oct-09 14:29N 49°17' W 123°04'0 0.0
2017-Oct-09 13:59N 49°17' W 123°04'0 0.0
2017-Oct-09 13:29N 49°17' W 123°04'0 0.0
2017-Oct-09 12:59N 49°17' W 123°04'0 0.0
2017-Oct-09 12:29N 49°17' W 123°04'0 0.0
2017-Oct-09 11:59N 49°17' W 123°04'0 0.0
2017-Oct-09 11:29N 49°17' W 123°04'0 0.0
2017-Oct-09 10:59N 49°17' W 123°04'0 0.0
2017-Oct-09 10:29N 49°17' W 123°04'0 0.0
2017-Oct-09 09:59N 49°17' W 123°04'0 0.0
2017-Oct-09 09:29N 49°17' W 123°04'0 0.0
2017-Oct-09 08:59N 49°17' W 123°04'0 0.0
2017-Oct-09 08:29N 49°17' W 123°04'0 0.0
2017-Oct-09 07:59N 49°17' W 123°04'0 0.0
2017-Oct-09 07:29N 49°17' W 123°04'0 0.0
2017-Oct-09 06:59N 49°17' W 123°04'0 0.0
2017-Oct-09 06:29N 49°17' W 123°04'0 0.0
2017-Oct-09 05:59N 49°17' W 123°04'0 0.0
2017-Oct-09 05:29N 49°17' W 123°04'0 0.0
2017-Oct-09 04:59N 49°17' W 123°04'0 0.0
2017-Oct-09 04:29N 49°17' W 123°04'0 0.0
2017-Oct-09 03:59N 49°17' W 123°04'0 0.0
2017-Oct-09 03:29N 49°17' W 123°04'0 0.0
2017-Oct-09 02:59N 49°17' W 123°04'0 0.1
2017-Oct-09 02:30N 49°17' W 123°04'1 2.5
2017-Oct-09 02:00N 49°18' W 123°05'0 0.1
2017-Oct-09 01:29N 49°18' W 123°05'0 0.3
2017-Oct-09 00:59N 49°18' W 123°05'0 0.1
2017-Oct-09 00:29N 49°18' W 123°05'0 0.1
2017-Oct-08 23:56N 49°18' W 123°05'0 0.0
2017-Oct-08 23:29N 49°18' W 123°05'0 0.1
2017-Oct-08 22:59N 49°18' W 123°05'0 0.3
2017-Oct-08 22:30N 49°18' W 123°06'1 2.1
2017-Oct-08 22:00N 49°18' W 123°07'510.2
2017-Oct-08 21:30N 49°18' W 123°15'611.9
2017-Oct-08 21:00N 49°13' W 123°19'713.1
2017-Oct-08 20:30N 49°06' W 123°21'611.7
2017-Oct-08 20:00N 49°01' W 123°17'612.8
2017-Oct-08 19:30N 48°57' W 123°10'612.6
2017-Oct-08 19:00N 48°52' W 123°03'510.6
2017-Oct-08 18:30N 48°47' W 123°00'611.1
2017-Oct-08 18:00N 48°44' W 123°08'611.8
2017-Oct-08 17:30N 48°44' W 123°17'713.6
2017-Oct-08 17:00N 48°50' W 123°21'713.9
2017-Oct-08 16:30N 48°55' W 123°29'5 9.5
2017-Oct-08 16:00N 48°56' W 123°37'3 6.9
2017-Oct-08 15:30N 48°56' W 123°42'2 3.6
2017-Oct-08 14:55N 48°57' W 123°44'0 0.1
2017-Oct-08 14:28N 48°57' W 123°44'0 0.0
2017-Oct-08 13:58N 48°57' W 123°44'0 0.0
2017-Oct-08 13:22N 48°57' W 123°44'0 0.0
2017-Oct-08 12:55N 48°57' W 123°44'0 0.1
2017-Oct-08 12:28N 48°57' W 123°44'0 0.0
2017-Oct-08 11:58N 48°57' W 123°44'0 0.0
2017-Oct-08 11:25N 48°57' W 123°44'0 0.0
2017-Oct-08 10:55N 48°57' W 123°44'0 0.0
2017-Oct-08 10:28N 48°57' W 123°44'0 0.0
2017-Oct-08 09:58N 48°57' W 123°44'0 0.1
2017-Oct-08 09:28N 48°57' W 123°44'0 0.1
2017-Oct-08 08:58N 48°57' W 123°44'0 0.0
2017-Oct-08 08:01N 48°57' W 123°44'0 0.0
2017-Oct-08 07:37N 48°57' W 123°44'0 0.0
2017-Oct-08 07:28N 48°57' W 123°44'0 0.1
2017-Oct-08 06:58N 48°57' W 123°44'0 0.1
2017-Oct-08 06:28N 48°57' W 123°44'0 0.0
2017-Oct-08 05:58N 48°57' W 123°44'0 0.0
2017-Oct-08 05:28N 48°57' W 123°44'0 0.0
2017-Oct-08 04:55N 48°57' W 123°44'0 0.0
2017-Oct-08 04:28N 48°57' W 123°44'0 0.0
2017-Oct-08 03:58N 48°57' W 123°44'0 0.0
2017-Oct-08 03:25N 48°57' W 123°44'0 0.0
2017-Oct-08 02:55N 48°57' W 123°44'0 0.0
2017-Oct-08 02:28N 48°57' W 123°44'0 0.1
2017-Oct-08 01:55N 48°57' W 123°44'0 0.0
2017-Oct-08 01:28N 48°57' W 123°44'0 0.2
2017-Oct-08 00:46N 48°57' W 123°44'0 0.3
2017-Oct-08 00:25N 48°57' W 123°45'0 0.1
2017-Oct-07 23:52N 48°57' W 123°45'0 0.0
2017-Oct-07 23:28N 48°57' W 123°45'0 0.1
2017-Oct-07 22:58N 48°57' W 123°45'0 0.0
2017-Oct-07 22:28N 48°57' W 123°45'  

Dump ship's entire track history